sensor_id;sensor_type;location;lat;lon;timestamp;pressure;altitude;pressure_sealevel;temperature;humidity
78894;BME280;68282;42.698;23.350;2023-05-10T00:00:10;95732.06;;;13.01;67.31
78894;BME280;68282;42.698;23.350;2023-05-10T00:02:36;95724.88;;;12.95;67.26
78894;BME280;68282;42.698;23.350;2023-05-10T00:05:01;95727.00;;;12.93;66.92
78894;BME280;68282;42.698;23.350;2023-05-10T00:07:27;95729.41;;;12.89;66.98
78894;BME280;68282;42.698;23.350;2023-05-10T00:09:52;95725.59;;;12.90;66.67
78894;BME280;68282;42.698;23.350;2023-05-10T00:12:17;95730.72;;;12.87;66.99
78894;BME280;68282;42.698;23.350;2023-05-10T00:14:43;95730.13;;;12.84;67.03
78894;BME280;68282;42.698;23.350;2023-05-10T00:17:08;95711.28;;;12.83;66.72
78894;BME280;68282;42.698;23.350;2023-05-10T00:19:33;95715.91;;;12.82;66.79
78894;BME280;68282;42.698;23.350;2023-05-10T00:21:59;95724.09;;;12.82;66.51
78894;BME280;68282;42.698;23.350;2023-05-10T00:24:25;95709.50;;;12.77;66.45
78894;BME280;68282;42.698;23.350;2023-05-10T00:27:19;95715.69;;;12.84;66.19
78894;BME280;68282;42.698;23.350;2023-05-10T00:29:44;95716.38;;;12.79;66.02
78894;BME280;68282;42.698;23.350;2023-05-10T00:32:10;95712.50;;;12.75;66.71
78894;BME280;68282;42.698;23.350;2023-05-10T00:34:35;95717.25;;;12.68;66.42
78894;BME280;68282;42.698;23.350;2023-05-10T00:37:01;95711.56;;;12.70;66.60
78894;BME280;68282;42.698;23.350;2023-05-10T00:39:26;95711.44;;;12.64;66.43
78894;BME280;68282;42.698;23.350;2023-05-10T00:41:53;95713.50;;;12.57;66.68
78894;BME280;68282;42.698;23.350;2023-05-10T00:44:19;95708.72;;;12.64;66.70
78894;BME280;68282;42.698;23.350;2023-05-10T00:46:45;95707.31;;;12.62;66.87
78894;BME280;68282;42.698;23.350;2023-05-10T00:49:10;95701.59;;;12.63;66.72
78894;BME280;68282;42.698;23.350;2023-05-10T00:51:36;95701.38;;;12.65;66.51
78894;BME280;68282;42.698;23.350;2023-05-10T00:54:02;95700.44;;;12.59;66.24
78894;BME280;68282;42.698;23.350;2023-05-10T00:56:28;95702.66;;;12.62;66.39
78894;BME280;68282;42.698;23.350;2023-05-10T00:58:55;95704.31;;;12.63;66.62
78894;BME280;68282;42.698;23.350;2023-05-10T01:01:20;95698.78;;;12.58;66.53
78894;BME280;68282;42.698;23.350;2023-05-10T01:03:46;95697.72;;;12.59;66.38
78894;BME280;68282;42.698;23.350;2023-05-10T01:06:12;95695.59;;;12.61;66.13
78894;BME280;68282;42.698;23.350;2023-05-10T01:08:38;95698.31;;;12.61;66.51
78894;BME280;68282;42.698;23.350;2023-05-10T01:11:04;95691.53;;;12.64;66.24
78894;BME280;68282;42.698;23.350;2023-05-10T01:13:38;95702.00;;;12.55;66.16
78894;BME280;68282;42.698;23.350;2023-05-10T01:16:04;95697.84;;;12.52;66.27
78894;BME280;68282;42.698;23.350;2023-05-10T01:18:35;95693.47;;;12.51;66.58
78894;BME280;68282;42.698;23.350;2023-05-10T01:37:52;95684.59;;;12.44;65.34
78894;BME280;68282;42.698;23.350;2023-05-10T01:40:35;95676.63;;;12.43;65.21
78894;BME280;68282;42.698;23.350;2023-05-10T01:43:05;95676.28;;;12.39;64.96
78894;BME280;68282;42.698;23.350;2023-05-10T01:45:39;95678.09;;;12.33;65.64
78894;BME280;68282;42.698;23.350;2023-05-10T01:48:10;95664.59;;;12.27;65.83
78894;BME280;68282;42.698;23.350;2023-05-10T01:50:38;95671.94;;;12.26;65.74
78894;BME280;68282;42.698;23.350;2023-05-10T01:53:07;95667.44;;;12.32;65.04
78894;BME280;68282;42.698;23.350;2023-05-10T01:55:35;95668.50;;;12.31;65.16
78894;BME280;68282;42.698;23.350;2023-05-10T01:58:08;95677.28;;;12.33;65.58
78894;BME280;68282;42.698;23.350;2023-05-10T02:00:35;95679.28;;;12.26;65.19
78894;BME280;68282;42.698;23.350;2023-05-10T02:03:05;95676.56;;;12.26;64.58
78894;BME280;68282;42.698;23.350;2023-05-10T02:05:32;95672.28;;;12.30;65.05
78894;BME280;68282;42.698;23.350;2023-05-10T02:07:59;95671.81;;;12.33;64.99
78894;BME280;68282;42.698;23.350;2023-05-10T02:10:28;95682.84;;;12.26;64.10
78894;BME280;68282;42.698;23.350;2023-05-10T02:12:54;95677.41;;;12.26;63.77
78894;BME280;68282;42.698;23.350;2023-05-10T02:15:22;95679.06;;;12.27;64.05
78894;BME280;68282;42.698;23.350;2023-05-10T02:17:48;95677.63;;;12.25;64.10
78894;BME280;68282;42.698;23.350;2023-05-10T02:20:16;95680.94;;;12.27;64.09
78894;BME280;68282;42.698;23.350;2023-05-10T02:22:42;95680.72;;;12.28;64.18
78894;BME280;68282;42.698;23.350;2023-05-10T02:25:10;95684.88;;;12.31;64.35
78894;BME280;68282;42.698;23.350;2023-05-10T02:27:38;95681.19;;;12.25;64.68
78894;BME280;68282;42.698;23.350;2023-05-10T02:30:06;95686.41;;;12.27;63.80
78894;BME280;68282;42.698;23.350;2023-05-10T02:32:33;95682.25;;;12.24;64.29
78894;BME280;68282;42.698;23.350;2023-05-10T02:35:00;95687.47;;;12.26;63.73
78894;BME280;68282;42.698;23.350;2023-05-10T02:37:27;95683.56;;;12.21;63.84
78894;BME280;68282;42.698;23.350;2023-05-10T02:39:54;95692.09;;;12.13;61.76
78894;BME280;68282;42.698;23.350;2023-05-10T02:42:25;95684.78;;;12.02;62.02
78894;BME280;68282;42.698;23.350;2023-05-10T02:44:53;95682.03;;;12.02;61.81
78894;BME280;68282;42.698;23.350;2023-05-10T02:47:20;95679.91;;;11.92;62.33
78894;BME280;68282;42.698;23.350;2023-05-10T02:49:45;95685.22;;;11.87;62.07
78894;BME280;68282;42.698;23.350;2023-05-10T02:52:16;95686.53;;;11.84;61.43
78894;BME280;68282;42.698;23.350;2023-05-10T02:54:45;95679.34;;;11.78;60.99
78894;BME280;68282;42.698;23.350;2023-05-10T02:57:16;95680.25;;;11.72;61.89
78894;BME280;68282;42.698;23.350;2023-05-10T02:59:44;95679.78;;;11.75;61.79
78894;BME280;68282;42.698;23.350;2023-05-10T03:02:14;95678.00;;;11.69;60.53
78894;BME280;68282;42.698;23.350;2023-05-10T03:04:40;95682.38;;;11.70;60.88
78894;BME280;68282;42.698;23.350;2023-05-10T03:07:05;95684.06;;;11.71;61.22
78894;BME280;68282;42.698;23.350;2023-05-10T03:09:31;95682.16;;;11.71;60.71
78894;BME280;68282;42.698;23.350;2023-05-10T03:15:02;95691.63;;;11.69;61.42
78894;BME280;68282;42.698;23.350;2023-05-10T03:17:57;95691.53;;;11.64;61.43
78894;BME280;68282;42.698;23.350;2023-05-10T03:20:42;95689.75;;;11.69;60.96
78894;BME280;68282;42.698;23.350;2023-05-10T03:25:43;95688.09;;;11.56;61.07
78894;BME280;68282;42.698;23.350;2023-05-10T03:28:09;95695.19;;;11.57;60.04
78894;BME280;68282;42.698;23.350;2023-05-10T03:30:35;95697.31;;;11.55;60.55
78894;BME280;68282;42.698;23.350;2023-05-10T03:33:05;95697.44;;;11.60;60.10
78894;BME280;68282;42.698;23.350;2023-05-10T03:35:34;95697.78;;;11.52;61.16
78894;BME280;68282;42.698;23.350;2023-05-10T03:38:00;95693.41;;;11.51;60.72
78894;BME280;68282;42.698;23.350;2023-05-10T03:40:26;95697.78;;;11.52;61.37
78894;BME280;68282;42.698;23.350;2023-05-10T03:42:54;95698.97;;;11.44;60.94
78894;BME280;68282;42.698;23.350;2023-05-10T03:45:20;95689.72;;;11.34;59.97
78894;BME280;68282;42.698;23.350;2023-05-10T03:47:45;95695.75;;;11.36;61.08
78894;BME280;68282;42.698;23.350;2023-05-10T03:50:11;95699.91;;;11.38;60.52
78894;BME280;68282;42.698;23.350;2023-05-10T03:52:36;95697.41;;;11.37;60.89
78894;BME280;68282;42.698;23.350;2023-05-10T03:55:04;95702.47;;;11.21;60.66
78894;BME280;68282;42.698;23.350;2023-05-10T03:57:30;95697.03;;;11.33;61.18
78894;BME280;68282;42.698;23.350;2023-05-10T03:59:55;95707.94;;;11.33;60.47
78894;BME280;68282;42.698;23.350;2023-05-10T04:02:21;95715.66;;;11.36;60.46
78894;BME280;68282;42.698;23.350;2023-05-10T04:04:46;95707.47;;;11.36;60.35
78894;BME280;68282;42.698;23.350;2023-05-10T04:07:11;95708.19;;;11.32;60.49
78894;BME280;68282;42.698;23.350;2023-05-10T04:09:37;95712.31;;;11.34;61.05
78894;BME280;68282;42.698;23.350;2023-05-10T04:12:02;95719.19;;;11.37;60.88
78894;BME280;68282;42.698;23.350;2023-05-10T04:14:28;95714.13;;;11.40;60.82
78894;BME280;68282;42.698;23.350;2023-05-10T04:16:53;95717.41;;;11.42;60.40
78894;BME280;68282;42.698;23.350;2023-05-10T04:19:18;95715.28;;;11.33;60.36
78894;BME280;68282;42.698;23.350;2023-05-10T04:21:44;95716.00;;;11.28;59.99
78894;BME280;68282;42.698;23.350;2023-05-10T04:24:09;95721.44;;;11.28;60.27
78894;BME280;68282;42.698;23.350;2023-05-10T04:26:35;95720.38;;;11.29;60.59
78894;BME280;68282;42.698;23.350;2023-05-10T04:29:00;95718.06;;;11.14;60.18
78894;BME280;68282;42.698;23.350;2023-05-10T04:31:25;95729.75;;;11.03;60.42
78894;BME280;68282;42.698;23.350;2023-05-10T04:33:52;95726.13;;;11.09;60.37
78894;BME280;68282;42.698;23.350;2023-05-10T04:36:18;95725.78;;;11.17;61.46
78894;BME280;68282;42.698;23.350;2023-05-10T04:38:43;95724.72;;;11.18;60.23
78894;BME280;68282;42.698;23.350;2023-05-10T04:41:10;95724.47;;;11.20;60.12
78894;BME280;68282;42.698;23.350;2023-05-10T04:43:36;95719.78;;;11.27;60.55
78894;BME280;68282;42.698;23.350;2023-05-10T04:46:02;95718.47;;;11.29;60.02
78894;BME280;68282;42.698;23.350;2023-05-10T04:48:28;95722.84;;;11.31;59.50
78894;BME280;68282;42.698;23.350;2023-05-10T04:50:53;95715.41;;;11.26;59.80
78894;BME280;68282;42.698;23.350;2023-05-10T04:53:19;95721.34;;;11.35;59.99
78894;BME280;68282;42.698;23.350;2023-05-10T04:55:44;95713.38;;;11.33;59.62
78894;BME280;68282;42.698;23.350;2023-05-10T04:58:10;95720.94;;;11.31;60.03
78894;BME280;68282;42.698;23.350;2023-05-10T05:00:35;95713.16;;;11.35;60.18
78894;BME280;68282;42.698;23.350;2023-05-10T05:03:01;95709.97;;;11.38;60.81
78894;BME280;68282;42.698;23.350;2023-05-10T05:05:26;95721.00;;;11.43;60.47
78894;BME280;68282;42.698;23.350;2023-05-10T05:07:52;95721.34;;;11.35;59.46
78894;BME280;68282;42.698;23.350;2023-05-10T05:10:17;95732.22;;;11.35;59.56
78894;BME280;68282;42.698;23.350;2023-05-10T05:12:43;95727.97;;;11.39;59.72
78894;BME280;68282;42.698;23.350;2023-05-10T05:15:09;95730.69;;;11.39;59.84
78894;BME280;68282;42.698;23.350;2023-05-10T05:17:35;95729.16;;;11.43;59.81
78894;BME280;68282;42.698;23.350;2023-05-10T05:20:01;95726.91;;;11.40;60.69
78894;BME280;68282;42.698;23.350;2023-05-10T05:22:27;95732.94;;;11.42;60.24
78894;BME280;68282;42.698;23.350;2023-05-10T05:24:56;95735.44;;;11.43;60.63
78894;BME280;68282;42.698;23.350;2023-05-10T05:27:23;95730.81;;;11.44;60.30
78894;BME280;68282;42.698;23.350;2023-05-10T05:29:54;95741.28;;;11.71;73.88
78894;BME280;68282;42.698;23.350;2023-05-10T05:32:19;95732.44;;;12.11;64.50
78894;BME280;68282;42.698;23.350;2023-05-10T05:34:45;95736.94;;;12.05;59.70
78894;BME280;68282;42.698;23.350;2023-05-10T05:37:19;95733.94;;;11.83;60.08
78894;BME280;68282;42.698;23.350;2023-05-10T05:39:46;95737.28;;;11.73;59.78
78894;BME280;68282;42.698;23.350;2023-05-10T05:42:12;95747.56;;;11.71;60.12
78894;BME280;68282;42.698;23.350;2023-05-10T05:44:38;95733.09;;;11.59;60.00
78894;BME280;68282;42.698;23.350;2023-05-10T05:47:04;95737.94;;;11.57;60.38
78894;BME280;68282;42.698;23.350;2023-05-10T05:49:30;95745.88;;;11.58;60.42
78894;BME280;68282;42.698;23.350;2023-05-10T05:51:59;95750.84;;;11.62;59.93
78894;BME280;68282;42.698;23.350;2023-05-10T05:54:26;95747.88;;;11.63;60.01
78894;BME280;68282;42.698;23.350;2023-05-10T05:56:59;95752.66;;;11.68;60.09
78894;BME280;68282;42.698;23.350;2023-05-10T05:59:24;95754.78;;;11.66;60.36
78894;BME280;68282;42.698;23.350;2023-05-10T06:01:50;95760.59;;;11.57;59.22
78894;BME280;68282;42.698;23.350;2023-05-10T06:04:16;95751.72;;;11.62;60.07
78894;BME280;68282;42.698;23.350;2023-05-10T06:06:42;95755.25;;;11.63;60.33
78894;BME280;68282;42.698;23.350;2023-05-10T06:09:08;95754.91;;;11.71;60.28
78894;BME280;68282;42.698;23.350;2023-05-10T06:11:34;95756.34;;;11.73;60.23
78894;BME280;68282;42.698;23.350;2023-05-10T06:14:00;95751.47;;;11.64;59.53
78894;BME280;68282;42.698;23.350;2023-05-10T06:16:25;95763.06;;;11.59;59.60
78894;BME280;68282;42.698;23.350;2023-05-10T06:18:51;95754.53;;;11.55;60.18
78894;BME280;68282;42.698;23.350;2023-05-10T06:21:16;95760.44;;;11.52;59.85
78894;BME280;68282;42.698;23.350;2023-05-10T06:23:42;95761.16;;;11.48;59.98
78894;BME280;68282;42.698;23.350;2023-05-10T06:26:07;95766.22;;;11.44;59.69
78894;BME280;68282;42.698;23.350;2023-05-10T06:28:32;95761.94;;;11.36;60.19
78894;BME280;68282;42.698;23.350;2023-05-10T06:30:59;95767.28;;;11.43;60.05
78894;BME280;68282;42.698;23.350;2023-05-10T06:33:24;95768.13;;;11.43;60.44
78894;BME280;68282;42.698;23.350;2023-05-10T06:35:49;95767.66;;;11.47;59.91
78894;BME280;68282;42.698;23.350;2023-05-10T06:38:15;95761.97;;;11.48;60.11
78894;BME280;68282;42.698;23.350;2023-05-10T06:40:41;95757.72;;;11.52;60.06
78894;BME280;68282;42.698;23.350;2023-05-10T06:43:07;95767.19;;;11.50;60.32
78894;BME280;68282;42.698;23.350;2023-05-10T06:45:32;95766.25;;;11.56;59.79
78894;BME280;68282;42.698;23.350;2023-05-10T06:47:58;95761.97;;;11.48;59.30
78894;BME280;68282;42.698;23.350;2023-05-10T06:50:23;95759.72;;;11.45;59.56
78894;BME280;68282;42.698;23.350;2023-05-10T06:52:48;95761.59;;;11.44;59.54
78894;BME280;68282;42.698;23.350;2023-05-10T06:55:14;95766.00;;;11.45;59.36
78894;BME280;68282;42.698;23.350;2023-05-10T06:57:39;95774.41;;;11.56;59.04
78894;BME280;68282;42.698;23.350;2023-05-10T07:00:05;95773.47;;;11.50;59.31
78894;BME280;68282;42.698;23.350;2023-05-10T07:02:31;95768.63;;;11.52;58.67
78894;BME280;68282;42.698;23.350;2023-05-10T07:04:56;95769.94;;;11.62;59.25
78894;BME280;68282;42.698;23.350;2023-05-10T07:07:22;95772.19;;;11.65;58.61
78894;BME280;68282;42.698;23.350;2023-05-10T07:09:48;95769.69;;;11.63;58.47
78894;BME280;68282;42.698;23.350;2023-05-10T07:12:15;95775.53;;;11.67;59.10
78894;BME280;68282;42.698;23.350;2023-05-10T07:14:40;95766.97;;;11.63;58.43
78894;BME280;68282;42.698;23.350;2023-05-10T07:17:05;95773.84;;;11.66;58.57
78894;BME280;68282;42.698;23.350;2023-05-10T07:19:31;95773.63;;;11.67;57.19
78894;BME280;68282;42.698;23.350;2023-05-10T07:21:57;95779.06;;;11.67;56.52
78894;BME280;68282;42.698;23.350;2023-05-10T07:24:23;95775.88;;;11.70;57.41
78894;BME280;68282;42.698;23.350;2023-05-10T07:26:49;95777.66;;;11.76;58.01
78894;BME280;68282;42.698;23.350;2023-05-10T07:29:15;95777.31;;;11.85;58.45
78894;BME280;68282;42.698;23.350;2023-05-10T07:31:40;95778.28;;;11.90;57.01
78894;BME280;68282;42.698;23.350;2023-05-10T07:34:08;95783.13;;;11.88;57.03
78894;BME280;68282;42.698;23.350;2023-05-10T07:36:33;95781.47;;;11.87;57.00
78894;BME280;68282;42.698;23.350;2023-05-10T07:38:59;95786.69;;;11.89;57.24
78894;BME280;68282;42.698;23.350;2023-05-10T07:41:24;95786.22;;;11.92;57.84
78894;BME280;68282;42.698;23.350;2023-05-10T07:43:49;95783.94;;;11.89;56.64
78894;BME280;68282;42.698;23.350;2023-05-10T07:46:15;95785.00;;;11.88;57.02
78894;BME280;68282;42.698;23.350;2023-05-10T07:48:40;95787.63;;;11.95;56.79
78894;BME280;68282;42.698;23.350;2023-05-10T07:51:06;95779.19;;;11.96;57.23
78894;BME280;68282;42.698;23.350;2023-05-10T07:53:34;95777.09;;;11.98;56.07
78894;BME280;68282;42.698;23.350;2023-05-10T07:56:22;95780.78;;;12.04;54.84
78894;BME280;68282;42.698;23.350;2023-05-10T07:58:48;95794.06;;;12.00;55.60
78894;BME280;68282;42.698;23.350;2023-05-10T08:01:14;95798.44;;;12.01;56.29
78894;BME280;68282;42.698;23.350;2023-05-10T08:03:39;95799.06;;;12.03;56.13
78894;BME280;68282;42.698;23.350;2023-05-10T08:06:05;95789.47;;;12.01;55.18
78894;BME280;68282;42.698;23.350;2023-05-10T08:08:31;95787.19;;;11.98;54.96
78894;BME280;68282;42.698;23.350;2023-05-10T08:10:56;95791.78;;;11.97;55.36
78894;BME280;68282;42.698;23.350;2023-05-10T08:13:22;95792.97;;;11.89;54.92
78894;BME280;68282;42.698;23.350;2023-05-10T08:15:47;95793.09;;;11.95;55.73
78894;BME280;68282;42.698;23.350;2023-05-10T08:18:13;95786.94;;;11.99;55.01
78894;BME280;68282;42.698;23.350;2023-05-10T08:20:38;95792.19;;;12.01;55.13
78894;BME280;68282;42.698;23.350;2023-05-10T08:23:04;95795.72;;;12.01;54.64
78894;BME280;68282;42.698;23.350;2023-05-10T08:25:29;95790.97;;;12.09;55.70
78894;BME280;68282;42.698;23.350;2023-05-10T08:27:55;95789.00;;;12.16;57.27
78894;BME280;68282;42.698;23.350;2023-05-10T08:30:20;95802.63;;;12.16;57.49
78894;BME280;68282;42.698;23.350;2023-05-10T08:32:46;95790.41;;;12.18;57.57
78894;BME280;68282;42.698;23.350;2023-05-10T08:35:11;95792.66;;;12.21;56.95
78894;BME280;68282;42.698;23.350;2023-05-10T08:37:36;95796.56;;;12.26;57.25
78894;BME280;68282;42.698;23.350;2023-05-10T08:40:02;95793.72;;;12.32;57.96
78894;BME280;68282;42.698;23.350;2023-05-10T08:42:30;95795.84;;;12.42;57.73
78894;BME280;68282;42.698;23.350;2023-05-10T08:44:57;95801.19;;;12.49;58.21
78894;BME280;68282;42.698;23.350;2023-05-10T08:47:23;95802.47;;;12.46;56.70
78894;BME280;68282;42.698;23.350;2023-05-10T08:49:48;95796.31;;;12.39;57.08
78894;BME280;68282;42.698;23.350;2023-05-10T08:52:16;95800.47;;;12.42;57.77
78894;BME280;68282;42.698;23.350;2023-05-10T08:54:43;95800.47;;;12.42;57.81
78894;BME280;68282;42.698;23.350;2023-05-10T08:57:09;95797.97;;;12.40;58.77
78894;BME280;68282;42.698;23.350;2023-05-10T08:59:37;95798.81;;;12.52;57.79
78894;BME280;68282;42.698;23.350;2023-05-10T09:02:05;95790.97;;;12.56;57.08
78894;BME280;68282;42.698;23.350;2023-05-10T09:04:31;95793.22;;;12.59;57.25
78894;BME280;68282;42.698;23.350;2023-05-10T09:06:57;95791.44;;;12.65;56.05
78894;BME280;68282;42.698;23.350;2023-05-10T09:09:23;95794.16;;;12.65;56.00
78894;BME280;68282;42.698;23.350;2023-05-10T09:11:51;95793.94;;;12.55;56.24
78894;BME280;68282;42.698;23.350;2023-05-10T09:14:18;95794.63;;;12.62;54.81
78894;BME280;68282;42.698;23.350;2023-05-10T09:16:43;95792.03;;;12.55;54.46
78894;BME280;68282;42.698;23.350;2023-05-10T09:19:09;95786.09;;;12.46;55.97
78894;BME280;68282;42.698;23.350;2023-05-10T09:21:35;95787.97;;;12.58;57.38
78894;BME280;68282;42.698;23.350;2023-05-10T09:24:05;95789.66;;;12.59;57.24
78894;BME280;68282;42.698;23.350;2023-05-10T09:26:31;95786.44;;;12.62;56.76
78894;BME280;68282;42.698;23.350;2023-05-10T09:28:59;95795.09;;;12.59;57.33
78894;BME280;68282;42.698;23.350;2023-05-10T09:31:44;95792.63;;;12.57;58.06
78894;BME280;68282;42.698;23.350;2023-05-10T09:34:11;95790.50;;;12.59;57.80
78894;BME280;68282;42.698;23.350;2023-05-10T09:36:50;95780.66;;;12.58;56.60
78894;BME280;68282;42.698;23.350;2023-05-10T09:39:16;95789.16;;;12.62;56.87
78894;BME280;68282;42.698;23.350;2023-05-10T09:41:42;95776.59;;;12.61;57.02
78894;BME280;68282;42.698;23.350;2023-05-10T09:44:07;95776.94;;;12.64;56.67
78894;BME280;68282;42.698;23.350;2023-05-10T09:46:35;95788.78;;;12.70;56.77
78894;BME280;68282;42.698;23.350;2023-05-10T09:49:01;95775.16;;;12.70;56.27
78894;BME280;68282;42.698;23.350;2023-05-10T09:51:26;95769.69;;;12.70;55.07
78894;BME280;68282;42.698;23.350;2023-05-10T09:54:11;95773.50;;;12.69;54.81
78894;BME280;68282;42.698;23.350;2023-05-10T09:56:37;95768.88;;;12.70;55.41
78894;BME280;68282;42.698;23.350;2023-05-10T09:59:06;95770.06;;;12.62;55.80
78894;BME280;68282;42.698;23.350;2023-05-10T10:01:33;95772.06;;;12.66;55.54
78894;BME280;68282;42.698;23.350;2023-05-10T10:03:59;95770.19;;;12.67;54.38
78894;BME280;68282;42.698;23.350;2023-05-10T10:06:29;95765.56;;;12.67;53.69
78894;BME280;68282;42.698;23.350;2023-05-10T10:08:54;95756.78;;;12.65;54.61
78894;BME280;68282;42.698;23.350;2023-05-10T10:11:21;95764.56;;;12.74;55.75
78894;BME280;68282;42.698;23.350;2023-05-10T10:13:48;95760.63;;;12.81;54.30
78894;BME280;68282;42.698;23.350;2023-05-10T10:16:14;95749.00;;;12.86;55.06
78894;BME280;68282;42.698;23.350;2023-05-10T10:18:40;95741.72;;;12.92;54.62
78894;BME280;68282;42.698;23.350;2023-05-10T10:21:07;95745.16;;;12.99;54.34
78894;BME280;68282;42.698;23.350;2023-05-10T10:23:34;95743.69;;;13.08;54.48
78894;BME280;68282;42.698;23.350;2023-05-10T10:26:04;95743.78;;;13.13;55.22
78894;BME280;68282;42.698;23.350;2023-05-10T10:28:55;95744.38;;;13.15;52.73
78894;BME280;68282;42.698;23.350;2023-05-10T10:31:36;95749.66;;;13.05;52.03
78894;BME280;68282;42.698;23.350;2023-05-10T10:34:08;95745.72;;;13.01;52.68
78894;BME280;68282;42.698;23.350;2023-05-10T10:36:47;95750.19;;;12.90;52.22
78894;BME280;68282;42.698;23.350;2023-05-10T10:39:13;95742.81;;;12.91;52.89
78894;BME280;68282;42.698;23.350;2023-05-10T10:41:48;95747.94;;;12.87;53.36
78894;BME280;68282;42.698;23.350;2023-05-10T10:44:33;95739.34;;;12.95;53.88
78894;BME280;68282;42.698;23.350;2023-05-10T10:47:23;95745.31;;;12.92;52.98
78894;BME280;68282;42.698;23.350;2023-05-10T10:58:02;95751.75;;;13.15;53.48
78894;BME280;68282;42.698;23.350;2023-05-10T11:03:08;95753.16;;;13.18;53.49
78894;BME280;68282;42.698;23.350;2023-05-10T11:05:44;95754.41;;;13.27;53.31
78894;BME280;68282;42.698;23.350;2023-05-10T11:08:26;95747.13;;;13.33;53.81
78894;BME280;68282;42.698;23.350;2023-05-10T11:10:52;95748.91;;;13.39;53.94
78894;BME280;68282;42.698;23.350;2023-05-10T11:19:07;95747.63;;;13.29;52.55
78894;BME280;68282;42.698;23.350;2023-05-10T11:21:33;95738.56;;;13.12;53.35
78894;BME280;68282;42.698;23.350;2023-05-10T11:24:01;95745.06;;;13.23;54.32
78894;BME280;68282;42.698;23.350;2023-05-10T11:26:33;95750.34;;;13.29;54.78
78894;BME280;68282;42.698;23.350;2023-05-10T11:28:59;95745.25;;;13.33;53.47
78894;BME280;68282;42.698;23.350;2023-05-10T11:31:26;95752.00;;;13.30;53.71
78894;BME280;68282;42.698;23.350;2023-05-10T11:33:56;95747.34;;;13.14;54.44
78894;BME280;68282;42.698;23.350;2023-05-10T11:36:32;95745.97;;;13.28;54.96
78894;BME280;68282;42.698;23.350;2023-05-10T11:38:58;95747.41;;;13.31;53.86
78894;BME280;68282;42.698;23.350;2023-05-10T11:41:24;95748.31;;;13.37;54.21
78894;BME280;68282;42.698;23.350;2023-05-10T11:43:51;95747.72;;;13.35;53.50
78894;BME280;68282;42.698;23.350;2023-05-10T11:46:19;95748.94;;;13.27;53.16
78894;BME280;68282;42.698;23.350;2023-05-10T11:48:47;95750.09;;;13.14;54.02
78894;BME280;68282;42.698;23.350;2023-05-10T11:51:13;95740.31;;;13.18;54.70
78894;BME280;68282;42.698;23.350;2023-05-10T11:53:39;95741.00;;;13.25;53.96
78894;BME280;68282;42.698;23.350;2023-05-10T11:56:09;95744.06;;;13.29;53.93
78894;BME280;68282;42.698;23.350;2023-05-10T11:58:36;95740.94;;;13.37;54.65
78894;BME280;68282;42.698;23.350;2023-05-10T12:01:03;95739.88;;;13.38;53.94
78894;BME280;68282;42.698;23.350;2023-05-10T12:03:28;95739.16;;;13.43;54.29
78894;BME280;68282;42.698;23.350;2023-05-10T12:05:58;95738.41;;;13.48;53.51
78894;BME280;68282;42.698;23.350;2023-05-10T12:08:25;95734.31;;;13.33;53.88
78894;BME280;68282;42.698;23.350;2023-05-10T12:10:52;95734.66;;;13.37;54.33
78894;BME280;68282;42.698;23.350;2023-05-10T12:13:19;95731.59;;;13.33;53.74
78894;BME280;68282;42.698;23.350;2023-05-10T12:15:45;95729.94;;;13.32;53.92
78894;BME280;68282;42.698;23.350;2023-05-10T12:18:14;95728.59;;;13.35;53.74
78894;BME280;68282;42.698;23.350;2023-05-10T12:20:42;95724.09;;;13.40;55.08
78894;BME280;68282;42.698;23.350;2023-05-10T12:23:09;95724.53;;;13.49;53.62
78894;BME280;68282;42.698;23.350;2023-05-10T12:25:37;95728.81;;;13.45;53.73
78894;BME280;68282;42.698;23.350;2023-05-10T12:28:04;95719.53;;;13.46;53.62
78894;BME280;68282;42.698;23.350;2023-05-10T12:30:32;95718.16;;;13.43;53.88
78894;BME280;68282;42.698;23.350;2023-05-10T12:33:10;95719.28;;;13.48;54.33
78894;BME280;68282;42.698;23.350;2023-05-10T12:35:50;95714.41;;;13.50;54.35
78894;BME280;68282;42.698;23.350;2023-05-10T12:38:28;95711.34;;;13.46;54.19
78894;BME280;68282;42.698;23.350;2023-05-10T12:41:00;95707.44;;;13.42;53.85
78894;BME280;68282;42.698;23.350;2023-05-10T12:43:26;95703.53;;;13.38;54.03
78894;BME280;68282;42.698;23.350;2023-05-10T12:45:52;95709.97;;;13.32;53.91
78894;BME280;68282;42.698;23.350;2023-05-10T12:48:17;95705.69;;;13.36;54.18
78894;BME280;68282;42.698;23.350;2023-05-10T12:50:43;95697.16;;;13.32;53.47
78894;BME280;68282;42.698;23.350;2023-05-10T12:53:08;95709.19;;;13.19;53.50
78894;BME280;68282;42.698;23.350;2023-05-10T12:55:34;95704.31;;;13.21;54.51
78894;BME280;68282;42.698;23.350;2023-05-10T12:57:59;95703.34;;;13.27;54.51
78894;BME280;68282;42.698;23.350;2023-05-10T13:00:25;95694.16;;;13.34;54.72
78894;BME280;68282;42.698;23.350;2023-05-10T13:02:50;95695.69;;;13.41;53.78
78894;BME280;68282;42.698;23.350;2023-05-10T13:05:16;95684.28;;;13.44;53.74
78894;BME280;68282;42.698;23.350;2023-05-10T13:07:41;95688.16;;;13.49;53.50
78894;BME280;68282;42.698;23.350;2023-05-10T13:10:09;95692.66;;;13.55;53.53
78894;BME280;68282;42.698;23.350;2023-05-10T13:12:34;95693.47;;;13.55;53.67
78894;BME280;68282;42.698;23.350;2023-05-10T13:15:00;95689.06;;;13.54;53.32
78894;BME280;68282;42.698;23.350;2023-05-10T13:17:26;95681.44;;;13.56;53.81
78894;BME280;68282;42.698;23.350;2023-05-10T13:19:51;95672.75;;;13.59;54.58
78894;BME280;68282;42.698;23.350;2023-05-10T13:22:16;95685.09;;;13.62;53.92
78894;BME280;68282;42.698;23.350;2023-05-10T13:24:42;95683.00;;;13.69;54.08
78894;BME280;68282;42.698;23.350;2023-05-10T13:27:08;95680.38;;;13.74;53.57
78894;BME280;68282;42.698;23.350;2023-05-10T13:29:33;95675.97;;;13.73;53.22